Portada
METAR-TAF:

METAR-TAF

Aeroports :

Vientiane, Laos

latitud: 17-57N, longitud: 102-34E, altitud: 171 m

Observació

L'informe es va fer fa 41 minuts, a les 23:30 UTC
Vent 8 kt del Est/Sud-Est
Temperatura 25°C
Humitat 100%
Pressió 1007 hPa
Visibilitat: 6000 m
Cel ennuvolat a una alçada de 1000 ft
Cel cobert a una alçada de 8300 ft

METAR: VLVT 192330Z 12008KT 6000 BKN010 OVC083 25/25 Q1007 NOSIG

Hora: 07:11 (00:11 UTC)

Pronòstic

L'informe es va fer fa 1 hora i 11 minuts, a les 23:00 UTC
Pronòstic vàlid del 20 a les 00 UTC al 20 a les 24 UTC
Vent 6 kt del Est
Visibilitat: 8000 m
Núvols disperses a una alçada de 1600 ft
Núvols disperses a una alçada de 4000 ft
Cel ennuvolat a una alçada de 8300 ft

TAF: VLVT 192300Z 2000/2024 09006KT 8000 SCT016 SCT040 BKN083

Observacions i pronòstics meteorològics de més de 4000 aeroports (METAR i TAF).

Les estacions disponibles són els punts grocs i vermells al mapa.

Posi el ratolí al punt desitjat per veure el nom de l'estació.

Feu clic per veure les observacions i els pronòstics meteorològics.

Per canviar el mapa: feu clic els botons verds amb una creu de color negre per apropar; al botó verd amb un guió per allunyar la imatge; o en les fletxes verdes per a mapes adjacents.


METAR-TAF: